Time;durP1;ratioP1;P1;durP2;ratioP2;P2;SDS_P1;SDS_P2;PMS_P1;PMS_P2;Temp;Humidity;BMP_temperature;BMP_pressure;BME280_temperature;BME280_humidity;BME280_pressure;Samples;Min_cycle;Max_cycle;Signal;HPM_P1;HPM_P2
2023/03/22 00:00:28;;;;;;;6.78;2.33;;;10.30;99.90;;;;;;4973404;28;20707;-67
2023/03/22 00:02:56;;;;;;;5.80;2.05;;;10.20;99.90;;;;;;4976798;28;20050;-67
2023/03/22 00:05:22;;;;;;;13.15;2.92;;;10.20;99.90;;;;;;4968338;28;20065;-67
2023/03/22 00:07:52;;;;;;;7.00;2.07;;;10.20;99.90;;;;;;4966263;28;20378;-67
2023/03/22 00:10:18;;;;;;;9.73;1.92;;;10.10;99.90;;;;;;4973999;28;20050;-67
2023/03/22 00:12:44;;;;;;;10.65;1.90;;;10.20;99.90;;;;;;4979845;28;20214;-67
2023/03/22 00:15:10;;;;;;;8.93;1.87;;;10.10;99.90;;;;;;4973891;28;20935;-67
2023/03/22 00:17:36;;;;;;;5.97;1.52;;;10.10;99.90;;;;;;4977365;28;20205;-68
2023/03/22 00:20:05;;;;;;;7.80;2.43;;;10.00;99.90;;;;;;4977880;28;20569;-67
2023/03/22 00:22:31;;;;;;;6.38;1.70;;;10.00;99.90;;;;;;4981522;28;20117;-67
2023/03/22 00:24:57;;;;;;;4.38;1.75;;;10.00;99.90;;;;;;4975980;28;20141;-67
2023/03/22 00:27:23;;;;;;;8.07;1.60;;;9.90;99.90;;;;;;4979937;28;20076;-67
2023/03/22 00:29:51;;;;;;;7.13;1.37;;;10.00;99.90;;;;;;4976445;28;20457;-67
2023/03/22 00:32:16;;;;;;;3.10;1.65;;;9.90;99.90;;;;;;4983844;28;20437;-67
2023/03/22 00:34:42;;;;;;;6.97;1.93;;;9.90;99.90;;;;;;4971619;28;20240;-67
2023/03/22 00:37:08;;;;;;;4.20;1.43;;;9.90;99.90;;;;;;4975041;28;20080;-67
2023/03/22 00:39:34;;;;;;;5.90;1.93;;;9.90;99.90;;;;;;4977216;28;20599;-67
2023/03/22 00:41:59;;;;;;;6.43;1.65;;;9.80;99.90;;;;;;4980336;28;20445;-67
2023/03/22 00:44:27;;;;;;;9.17;1.50;;;9.70;99.90;;;;;;4981666;28;20050;-67
2023/03/22 00:46:53;;;;;;;8.43;1.83;;;9.80;99.90;;;;;;4977043;28;20213;-67
2023/03/22 00:49:18;;;;;;;8.37;1.23;;;9.80;99.90;;;;;;4979806;28;20041;-67
2023/03/22 00:51:44;;;;;;;4.97;1.67;;;9.80;99.90;;;;;;4984146;28;20058;-67
2023/03/22 00:54:10;;;;;;;11.37;2.13;;;9.80;99.90;;;;;;4979147;28;20042;-67
2023/03/22 00:56:37;;;;;;;;;;;9.80;99.90;;;;;;4974590;28;20058;-67
2023/03/22 00:59:05;;;;;;;3.58;1.10;;;9.80;99.90;;;;;;4980444;28;19922;-67
2023/03/22 01:01:31;;;;;;;5.05;1.45;;;9.80;99.90;;;;;;4982901;28;20053;-67
2023/03/22 01:03:56;;;;;;;4.07;0.90;;;9.80;99.90;;;;;;4980436;28;20258;-67
2023/03/22 01:06:22;;;;;;;5.13;1.77;;;9.80;99.90;;;;;;4978246;28;20137;-67
2023/03/22 01:08:49;;;;;;;4.23;0.70;;;9.80;99.90;;;;;;4978779;28;20078;-67
2023/03/22 01:11:16;;;;;;;4.00;1.20;;;9.80;99.90;;;;;;4975424;28;20043;-67
2023/03/22 01:13:42;;;;;;;7.32;1.38;;;9.80;99.90;;;;;;4984324;28;20057;-67
2023/03/22 01:16:09;;;;;;;11.50;1.73;;;9.80;99.90;;;;;;4982984;28;20054;-67
2023/03/22 01:18:36;;;;;;;7.25;1.30;;;9.80;99.90;;;;;;4983557;28;20237;-67
2023/03/22 01:21:02;;;;;;;6.25;1.10;;;9.80;99.90;;;;;;4961518;28;20144;-67
2023/03/22 01:23:27;;;;;;;4.05;1.23;;;9.80;99.90;;;;;;4980874;28;20035;-66
2023/03/22 01:25:53;;;;;;;6.87;1.20;;;9.80;99.90;;;;;;4971701;28;20092;-67
2023/03/22 01:28:19;;;;;;;9.40;1.17;;;9.80;99.90;;;;;;4985396;28;20050;-67
2023/03/22 01:30:44;;;;;;;3.33;1.00;;;9.80;99.90;;;;;;4978896;28;20582;-67
2023/03/22 01:33:10;;;;;;;3.57;1.03;;;9.80;99.90;;;;;;4976782;28;20451;-67
2023/03/22 01:35:36;;;;;;;2.60;0.70;;;9.80;99.90;;;;;;4976217;28;20357;-67
2023/03/22 01:38:02;;;;;;;2.13;0.77;;;9.70;99.90;;;;;;4980761;28;20248;-67
2023/03/22 01:40:28;;;;;;;3.92;0.77;;;9.70;99.90;;;;;;4994530;28;20527;-67
2023/03/22 01:42:56;;;;;;;12.27;1.30;;;9.70;99.90;;;;;;4979413;28;20189;-67
2023/03/22 01:45:46;;;;;;;6.47;0.88;;;9.60;99.90;;;;;;4978076;28;20491;-67
2023/03/22 01:48:27;;;;;;;5.78;0.75;;;9.60;99.90;;;;;;4975443;28;20097;-67
2023/03/22 01:51:13;;;;;;;5.10;1.17;;;9.60;99.90;;;;;;4978654;28;20046;-67
2023/03/22 01:53:52;;;;;;;7.18;1.30;;;9.60;99.90;;;;;;4982062;28;20500;-67
2023/03/22 01:56:22;;;;;;;2.97;0.93;;;9.60;99.90;;;;;;4976692;28;20459;-66
2023/03/22 01:58:49;;;;;;;11.60;1.38;;;9.60;99.90;;;;;;4978317;28;20077;-67
2023/03/22 02:01:15;;;;;;;2.85;0.95;;;9.60;99.90;;;;;;4978692;28;20038;-67
2023/03/22 02:04:11;;;;;;;3.80;1.00;;;9.50;99.90;;;;;;4964650;28;20556;-67
2023/03/22 02:06:38;;;;;;;10.30;1.17;;;9.50;99.90;;;;;;4972615;28;20140;-67
2023/03/22 02:09:11;;;;;;;4.35;0.90;;;9.50;99.90;;;;;;4979570;28;20053;-67
2023/03/22 02:11:45;;;;;;;5.57;1.20;;;9.40;99.90;;;;;;4976414;28;20046;-69
2023/03/22 02:14:24;;;;;;;3.88;0.90;;;9.60;99.90;;;;;;4983483;28;20053;-67
2023/03/22 02:17:10;;;;;;;7.70;1.33;;;9.50;99.90;;;;;;4986067;28;20047;-67
2023/03/22 02:19:48;;;;;;;11.27;1.13;;;9.60;99.90;;;;;;4968403;28;20531;-67
2023/03/22 02:22:37;;;;;;;5.00;1.10;;;9.50;99.90;;;;;;4985762;28;20038;-67
2023/03/22 02:25:16;;;;;;;4.32;1.40;;;9.50;99.90;;;;;;4978656;28;20064;-67
2023/03/22 02:28:01;;;;;;;3.80;0.82;;;9.50;99.90;;;;;;4984674;28;20448;-67
2023/03/22 02:30:59;;;;;;;5.63;1.17;;;9.60;99.90;;;;;;4998476;28;20050;-67
2023/03/22 02:33:46;;;;;;;4.57;0.90;;;9.50;99.90;;;;;;4982485;28;20112;-67
2023/03/22 02:36:39;;;;;;;6.57;1.00;;;9.50;99.90;;;;;;4983143;28;20285;-67
2023/03/22 02:39:27;;;;;;;5.45;0.82;;;9.60;99.90;;;;;;4981732;28;20050;-67
2023/03/22 02:41:58;;;;;;;3.28;0.98;;;9.60;99.90;;;;;;4986650;28;20130;-67
2023/03/22 02:44:39;;;;;;;5.95;1.40;;;9.60;99.90;;;;;;4979748;28;20129;-67
2023/03/22 02:47:19;;;;;;;4.55;1.63;;;9.50;99.90;;;;;;4977424;28;20180;-67
2023/03/22 02:50:14;;;;;;;4.38;0.90;;;9.60;99.90;;;;;;4972732;28;20100;-67
2023/03/22 02:52:53;;;;;;;9.57;1.27;;;9.60;99.90;;;;;;4977506;28;20069;-67
2023/03/22 02:55:56;;;;;;;13.20;1.13;;;9.60;99.90;;;;;;4976294;28;20089;-67
2023/03/22 02:58:38;;;;;;;5.03;1.55;;;9.60;99.90;;;;;;4943125;28;20402;-67
2023/03/22 03:01:10;;;;;;;6.00;1.27;;;9.60;99.90;;;;;;4977693;28;20049;-67
2023/03/22 03:03:38;;;;;;;3.78;0.82;;;9.60;99.90;;;;;;4975575;28;20118;-68
2023/03/22 03:06:15;;;;;;;3.58;1.33;;;9.70;99.90;;;;;;4974824;28;20046;-67
2023/03/22 03:08:43;;;;;;;8.43;1.80;;;9.70;99.90;;;;;;4971920;28;20053;-67
2023/03/22 03:11:08;;;;;;;10.75;1.20;;;9.70;99.90;;;;;;4978566;28;20502;-67
2023/03/22 03:13:34;;;;;;;7.53;1.33;;;9.60;99.90;;;;;;4976635;28;20053;-68
2023/03/22 03:16:02;;;;;;;5.25;1.40;;;9.70;99.90;;;;;;4969368;28;20054;-67
2023/03/22 03:18:57;;;;;;;5.95;1.58;;;9.60;99.90;;;;;;4977132;28;20108;-67
2023/03/22 03:21:31;;;;;;;9.30;1.20;;;9.70;99.90;;;;;;4997031;28;20392;-67
2023/03/22 03:24:16;;;;;;;7.93;1.42;;;9.60;99.90;;;;;;4971245;28;20761;-68
2023/03/22 03:27:39;;;;;;;3.08;0.90;;;9.60;99.90;;;;;;4979150;28;20042;-68
2023/03/22 03:30:25;;;;;;;7.50;1.52;;;9.60;99.90;;;;;;4944910;28;20213;-68
2023/03/22 03:32:58;;;;;;;7.25;1.50;;;9.70;99.90;;;;;;4929670;28;20541;-68
2023/03/22 03:35:37;;;;;;;4.97;1.67;;;9.70;99.90;;;;;;4967267;28;20290;-68
2023/03/22 03:38:10;;;;;;;11.82;2.03;;;9.70;99.90;;;;;;4972809;28;20143;-68
2023/03/22 03:40:47;;;;;;;4.28;1.00;;;9.70;99.90;;;;;;4981375;28;20109;-68
2023/03/22 03:43:14;;;;;;;5.57;1.20;;;9.60;99.90;;;;;;4980208;28;20104;-68
2023/03/22 03:45:40;;;;;;;3.55;1.05;;;9.60;99.90;;;;;;4968874;28;20069;-68
2023/03/22 03:48:10;;;;;;;5.07;1.17;;;9.70;99.90;;;;;;4978343;28;20173;-68
2023/03/22 03:50:36;;;;;;;9.25;1.67;;;9.60;99.90;;;;;;4985757;28;20058;-68
2023/03/22 03:53:04;;;;;;;11.23;2.28;;;9.60;99.90;;;;;;4981886;28;20038;-68
2023/03/22 03:55:30;;;;;;;8.23;1.42;;;9.70;99.90;;;;;;4977405;28;20120;-68
2023/03/22 03:57:56;;;;;;;;;;;9.70;99.90;;;;;;4981801;28;20045;-68
2023/03/22 04:00:22;;;;;;;7.90;1.48;;;9.70;99.90;;;;;;4979019;28;19918;-68
2023/03/22 04:02:47;;;;;;;4.80;1.13;;;9.70;99.90;;;;;;4983957;28;20038;-68
2023/03/22 04:05:13;;;;;;;7.80;1.20;;;9.60;99.90;;;;;;4980845;28;20173;-68
2023/03/22 04:07:39;;;;;;;5.70;1.60;;;9.70;99.90;;;;;;4982444;28;20180;-68
2023/03/22 04:10:05;;;;;;;5.68;1.50;;;9.70;99.90;;;;;;4982799;28;20042;-68
2023/03/22 04:12:34;;;;;;;5.28;1.10;;;9.70;99.90;;;;;;4985800;28;20362;-68
2023/03/22 04:15:00;;;;;;;4.57;1.38;;;9.70;99.90;;;;;;4981517;28;20045;-68
2023/03/22 04:17:27;;;;;;;5.73;2.60;;;9.70;99.90;;;;;;4982126;28;20042;-68
2023/03/22 04:19:55;;;;;;;5.13;1.10;;;9.70;99.90;;;;;;4984025;28;20051;-68
2023/03/22 04:22:22;;;;;;;6.70;1.45;;;9.70;99.90;;;;;;4982142;28;20449;-68
2023/03/22 04:24:48;;;;;;;8.43;2.33;;;9.70;99.90;;;;;;4967283;28;20513;-68
2023/03/22 04:27:18;;;;;;;;;;;9.60;99.90;;;;;;4981967;28;20058;-68
2023/03/22 04:29:50;;;;;;;4.53;1.10;;;9.70;99.90;;;;;;4985729;28;19918;-68
2023/03/22 04:32:21;;;;;;;8.32;1.85;;;9.60;99.90;;;;;;4980104;28;20054;-68
2023/03/22 04:34:48;;;;;;;6.80;1.75;;;9.60;99.90;;;;;;4976233;28;20133;-68
2023/03/22 04:37:15;;;;;;;6.32;1.95;;;9.60;99.90;;;;;;4979444;28;20049;-68
2023/03/22 04:39:41;;;;;;;9.10;2.40;;;9.60;99.90;;;;;;5022810;23;20061;-84
2023/03/22 04:42:10;;;;;;;6.38;1.77;;;9.60;99.90;;;;;;5008058;28;20053;-82
2023/03/22 04:44:36;;;;;;;10.98;2.17;;;9.70;99.90;;;;;;5012741;28;20055;-84
2023/03/22 04:47:05;;;;;;;5.67;2.30;;;9.60;99.90;;;;;;5011275;28;20053;-83
2023/03/22 04:49:41;;;;;;;7.93;2.58;;;9.60;99.90;;;;;;5028564;28;20056;-84
2023/03/22 04:52:25;;;;;;;8.87;2.30;;;9.70;99.90;;;;;;4994705;28;20038;-84
2023/03/22 04:55:13;;;;;;;8.30;2.60;;;9.60;99.90;;;;;;4995490;28;20033;-84
2023/03/22 04:57:44;;;;;;;10.55;2.63;;;9.70;99.90;;;;;;4991542;28;20033;-84
2023/03/22 05:00:56;;;;;;;6.85;2.90;;;9.70;99.90;;;;;;4997836;28;20049;-84
2023/03/22 05:04:05;;;;;;;9.88;2.92;;;9.70;99.90;;;;;;5010063;28;20049;-84
2023/03/22 05:07:06;;;;;;;8.52;2.80;;;9.70;99.90;;;;;;4990318;28;20046;-83
2023/03/22 05:10:10;;;;;;;;;;;9.70;99.90;;;;;;5010227;28;20054;-84
2023/03/22 05:12:36;;;;;;;7.25;3.28;;;9.70;99.90;;;;;;5025633;28;19923;-84
2023/03/22 05:15:13;;;;;;;9.35;3.50;;;9.70;99.90;;;;;;5027996;28;20048;-84
2023/03/22 05:17:41;;;;;;;10.95;3.15;;;9.70;99.90;;;;;;4999312;28;20602;-84
2023/03/22 05:20:09;;;;;;;7.78;3.60;;;9.70;99.90;;;;;;5011589;28;20061;-84
2023/03/22 05:22:39;;;;;;;6.68;3.17;;;9.70;99.90;;;;;;4994097;28;20124;-84
2023/03/22 05:25:09;;;;;;;10.50;3.67;;;9.70;99.90;;;;;;5008733;28;20077;-84
2023/03/22 05:27:37;;;;;;;10.13;3.72;;;9.60;99.90;;;;;;4996400;28;20045;-84
2023/03/22 05:30:09;;;;;;;9.80;3.97;;;9.80;99.90;;;;;;5009977;28;20041;-85
2023/03/22 05:32:41;;;;;;;11.20;4.28;;;9.80;99.90;;;;;;4996356;28;20045;-84
2023/03/22 05:35:07;;;;;;;11.75;4.68;;;9.70;99.90;;;;;;5008326;28;20496;-85
2023/03/22 05:37:36;;;;;;;9.35;4.47;;;9.80;99.90;;;;;;5010392;28;20124;-84
2023/03/22 05:40:08;;;;;;;11.60;4.10;;;9.80;99.90;;;;;;5027643;28;20053;-84
2023/03/22 05:42:35;;;;;;;10.18;4.63;;;9.80;99.90;;;;;;4995377;28;20053;-85
2023/03/22 05:45:04;;;;;;;;;;;9.80;99.90;;;;;;4994568;28;20446;-81
2023/03/22 05:47:30;;;;;;;12.02;4.63;;;9.80;99.90;;;;;;5024801;28;20032;-84
2023/03/22 05:50:18;;;;;;;15.10;4.80;;;9.80;99.90;;;;;;4995328;28;20516;-84
2023/03/22 05:52:44;;;;;;;12.65;5.65;;;9.80;99.90;;;;;;5006509;28;20060;-84
2023/03/22 05:55:19;;;;;;;9.77;5.15;;;9.80;99.90;;;;;;4993226;28;20041;-82
2023/03/22 05:57:56;;;;;;;10.82;5.38;;;9.90;99.90;;;;;;5011952;28;20113;-85
2023/03/22 06:00:34;;;;;;;16.42;5.00;;;9.90;99.90;;;;;;5010221;28;20386;-84
2023/03/22 06:03:04;;;;;;;9.82;4.78;;;9.90;99.90;;;;;;4995779;28;20045;-83
2023/03/22 06:08:24;;;;;;;11.38;5.25;;;10.00;99.90;;;;;;5010310;28;20064;-84
2023/03/22 06:10:54;;;;;;;13.10;5.38;;;10.00;99.90;;;;;;4993717;28;20069;-84
2023/03/22 06:13:20;;;;;;;14.93;5.70;;;10.00;99.90;;;;;;4993874;28;20041;-84
2023/03/22 06:15:46;;;;;;;13.25;5.03;;;10.00;99.90;;;;;;5009654;28;20440;-84
2023/03/22 06:18:12;;;;;;;15.93;5.93;;;10.00;99.90;;;;;;4995526;28;20124;-84
2023/03/22 06:20:43;;;;;;;13.55;5.30;;;10.00;99.90;;;;;;4995351;28;20132;-85
2023/03/22 06:23:12;;;;;;;13.85;5.72;;;9.90;99.90;;;;;;5006852;28;20084;-85
2023/03/22 06:25:38;;;;;;;13.50;5.93;;;10.00;99.90;;;;;;5006122;28;20582;-83
2023/03/22 06:28:04;;;;;;;10.23;5.73;;;10.10;99.90;;;;;;4993544;28;20124;-83
2023/03/22 06:30:41;;;;;;;14.02;6.07;;;10.10;99.90;;;;;;5009311;28;20064;-84
2023/03/22 06:33:11;;;;;;;13.70;5.18;;;10.20;99.90;;;;;;5027222;28;20500;-82
2023/03/22 06:35:40;;;;;;;10.70;5.68;;;10.10;99.90;;;;;;4998731;28;20424;-84
2023/03/22 06:38:08;;;;;;;11.77;5.80;;;10.10;99.90;;;;;;5016557;28;20413;-84
2023/03/22 06:40:39;;;;;;;13.65;6.22;;;10.10;99.90;;;;;;4991542;28;20116;-84
2023/03/22 06:43:05;;;;;;;15.32;5.57;;;10.20;99.90;;;;;;4995951;28;20386;-84
2023/03/22 06:45:36;;;;;;;17.97;6.17;;;10.20;99.90;;;;;;5025955;28;20103;-84
2023/03/22 06:48:05;;;;;;;13.43;6.30;;;10.30;99.90;;;;;;5030145;28;20072;-83
2023/03/22 06:50:37;;;;;;;12.88;5.32;;;10.30;99.90;;;;;;5027875;28;20570;-83
2023/03/22 06:53:04;;;;;;;15.45;5.97;;;10.40;99.90;;;;;;5006760;28;20038;-84
2023/03/22 06:55:36;;;;;;;13.38;6.07;;;10.40;99.90;;;;;;4991601;28;20871;-84
2023/03/22 06:58:04;;;;;;;10.52;6.00;;;10.40;99.90;;;;;;5013425;28;20048;-84
2023/03/22 07:00:37;;;;;;;13.90;6.03;;;10.50;99.90;;;;;;5004907;28;20037;-84
2023/03/22 07:03:11;;;;;;;9.88;5.75;;;10.50;99.90;;;;;;5025289;28;20041;-84
2023/03/22 07:05:37;;;;;;;16.77;5.70;;;10.50;99.90;;;;;;4990373;28;20573;-83
2023/03/22 07:08:06;;;;;;;10.93;5.93;;;10.50;99.90;;;;;;5008117;28;20108;-84
2023/03/22 07:10:34;;;;;;;14.65;5.25;;;10.50;99.90;;;;;;5008618;28;20464;-85
2023/03/22 07:13:01;;;;;;;12.35;5.65;;;10.50;99.90;;;;;;4995085;28;20048;-84
2023/03/22 07:15:29;;;;;;;11.70;5.78;;;10.60;99.90;;;;;;4990577;28;20049;-84
2023/03/22 07:17:55;;;;;;;13.60;5.53;;;10.50;99.90;;;;;;5011557;28;20046;-84
2023/03/22 07:20:21;;;;;;;12.30;5.13;;;10.50;99.90;;;;;;4998406;28;22154;-85
2023/03/22 07:22:51;;;;;;;15.00;5.88;;;10.50;99.90;;;;;;4993908;28;20279;-84
2023/03/22 07:25:17;;;;;;;12.32;4.82;;;10.50;99.90;;;;;;4992046;28;20076;-83
2023/03/22 07:27:43;;;;;;;11.25;4.55;;;10.60;99.90;;;;;;5003276;28;20048;-84
2023/03/22 07:30:10;;;;;;;13.23;4.80;;;10.60;99.90;;;;;;5006469;28;21566;-85
2023/03/22 07:32:45;;;;;;;11.32;4.95;;;10.60;99.90;;;;;;5012762;28;20311;-83
2023/03/22 07:35:10;;;;;;;11.88;5.30;;;10.60;99.90;;;;;;5027457;28;20040;-84
2023/03/22 07:37:36;;;;;;;15.20;5.60;;;10.60;99.90;;;;;;5007350;28;20053;-84
2023/03/22 07:40:03;;;;;;;10.23;4.63;;;10.60;99.90;;;;;;5024614;28;20191;-84
2023/03/22 07:42:30;;;;;;;13.48;4.82;;;10.60;99.90;;;;;;4995871;28;20285;-84
2023/03/22 07:44:56;;;;;;;10.07;5.07;;;10.70;99.90;;;;;;4994050;28;20316;-83
2023/03/22 07:47:22;;;;;;;12.23;5.18;;;10.70;99.90;;;;;;5009778;28;20064;-84
2023/03/22 07:49:53;;;;;;;11.63;4.57;;;10.80;99.90;;;;;;5028387;28;20129;-85
2023/03/22 07:52:19;;;;;;;11.45;3.95;;;10.80;99.90;;;;;;4993323;28;20124;-85
2023/03/22 07:54:44;;;;;;;15.40;4.80;;;10.90;99.90;;;;;;5009456;28;20121;-84
2023/03/22 07:57:22;;;;;;;9.40;4.57;;;10.90;99.90;;;;;;4990658;28;20295;-85
2023/03/22 08:00:04;;;;;;;12.07;4.45;;;10.90;99.90;;;;;;4994247;28;20171;-84
2023/03/22 08:02:30;;;;;;;16.13;5.22;;;10.90;99.90;;;;;;5010518;28;20135;-85
2023/03/22 08:04:56;;;;;;;10.50;3.90;;;10.90;99.90;;;;;;5014768;28;20037;-84
2023/03/22 08:07:25;;;;;;;12.15;5.63;;;10.90;99.90;;;;;;5010642;28;20068;-84
2023/03/22 08:10:00;;;;;;;8.50;3.63;;;10.90;99.90;;;;;;5030640;28;20487;-84
2023/03/22 08:12:26;;;;;;;9.77;4.78;;;10.90;99.90;;;;;;5011940;28;20037;-83
2023/03/22 08:14:55;;;;;;;9.98;5.10;;;11.00;99.90;;;;;;5012434;28;20500;-85
2023/03/22 08:17:20;;;;;;;9.57;4.00;;;11.00;99.90;;;;;;5014642;28;20055;-84
2023/03/22 08:19:49;;;;;;;11.53;4.47;;;11.00;99.90;;;;;;4992388;28;20489;-85
2023/03/22 08:22:14;;;;;;;8.07;3.80;;;10.90;99.90;;;;;;5005219;28;20042;-85
2023/03/22 08:24:43;;;;;;;9.23;3.53;;;11.00;99.90;;;;;;5028614;28;20056;-85
2023/03/22 08:27:11;;;;;;;14.55;4.75;;;11.10;99.90;;;;;;5023654;28;20065;-84
2023/03/22 08:29:44;;;;;;;9.32;3.78;;;11.10;99.90;;;;;;5010969;28;20467;-85
2023/03/22 08:32:13;;;;;;;10.85;3.47;;;11.10;99.90;;;;;;4996469;28;20053;-82
2023/03/22 08:34:42;;;;;;;8.18;3.30;;;11.20;99.90;;;;;;5008447;28;20088;-83
2023/03/22 08:37:09;;;;;;;9.05;3.97;;;11.20;99.90;;;;;;5013288;28;20049;-83
2023/03/22 08:39:38;;;;;;;9.35;3.88;;;11.30;99.90;;;;;;5006604;28;20424;-83
2023/03/22 08:42:04;;;;;;;11.27;3.72;;;11.30;99.90;;;;;;5030690;28;20041;-85
2023/03/22 08:44:33;;;;;;;12.55;3.80;;;11.40;99.90;;;;;;5014852;28;20111;-84
2023/03/22 08:47:02;;;;;;;10.52;3.83;;;11.40;99.90;;;;;;4996092;28;20049;-82
2023/03/22 08:49:30;;;;;;;9.35;3.30;;;11.30;99.90;;;;;;5013147;28;20049;-83
2023/03/22 08:51:56;;;;;;;12.52;3.80;;;11.30;99.90;;;;;;5014268;28;20044;-84
2023/03/22 08:54:26;;;;;;;9.15;4.07;;;11.30;99.90;;;;;;5012106;28;20440;-82
2023/03/22 08:56:57;;;;;;;11.57;3.25;;;11.30;99.90;;;;;;5010937;28;20132;-85
2023/03/22 08:59:23;;;;;;;8.88;3.70;;;11.30;99.90;;;;;;5027898;28;20064;-84
2023/03/22 09:01:49;;;;;;;5.47;3.27;;;11.20;99.90;;;;;;5030593;28;20037;-84
2023/03/22 09:04:14;;;;;;;7.83;3.50;;;11.30;99.90;;;;;;5011659;28;20128;-83
2023/03/22 09:06:44;;;;;;;9.40;3.37;;;11.20;99.90;;;;;;5009833;28;20282;-84
2023/03/22 09:09:13;;;;;;;6.07;2.97;;;11.20;99.90;;;;;;4996271;28;20048;-85
2023/03/22 09:11:41;;;;;;;9.02;3.05;;;11.20;99.90;;;;;;5028405;28;20092;-85
2023/03/22 09:14:08;;;;;;;5.93;2.55;;;11.30;99.90;;;;;;5011973;28;20041;-85
2023/03/22 09:16:40;;;;;;;6.22;2.60;;;11.20;99.90;;;;;;4994709;28;20528;-84
2023/03/22 09:19:06;;;;;;;8.93;3.13;;;11.20;99.90;;;;;;5012055;28;20562;-83
2023/03/22 09:21:31;;;;;;;10.77;2.85;;;11.20;99.90;;;;;;5011653;28;20057;-82
2023/03/22 09:23:57;;;;;;;11.90;3.43;;;11.20;99.90;;;;;;5008237;28;20045;-84
2023/03/22 09:26:30;;;;;;;15.53;3.17;;;11.20;99.90;;;;;;5022869;28;20040;-85
2023/03/22 09:28:56;;;;;;;10.23;2.83;;;11.20;99.90;;;;;;5017371;28;20294;-84
2023/03/22 09:31:22;;;;;;;9.65;2.80;;;11.10;99.90;;;;;;5000011;28;20049;-82
2023/03/22 09:33:47;;;;;;;6.47;2.13;;;11.10;99.90;;;;;;5011047;28;20061;-85
2023/03/22 09:36:20;;;;;;;9.63;2.28;;;11.00;99.90;;;;;;4994502;28;20052;-84
2023/03/22 09:38:49;;;;;;;7.85;2.95;;;11.00;99.90;;;;;;4995360;28;20116;-85
2023/03/22 09:41:19;;;;;;;7.85;2.90;;;11.00;99.90;;;;;;5003280;28;20056;-82
2023/03/22 09:43:52;;;;;;;9.55;2.25;;;10.90;99.90;;;;;;5009349;28;20128;-85
2023/03/22 09:46:40;;;;;;;10.90;2.60;;;11.00;99.90;;;;;;5014742;28;20105;-85
2023/03/22 09:49:32;;;;;;;7.53;2.38;;;10.80;99.90;;;;;;5005858;28;20045;-85
2023/03/22 09:51:58;;;;;;;7.28;2.50;;;10.90;99.90;;;;;;4991517;28;20041;-84
2023/03/22 09:54:32;;;;;;;4.97;2.30;;;10.80;99.90;;;;;;5007002;28;20501;-84
2023/03/22 09:57:19;;;;;;;7.57;2.13;;;10.80;99.90;;;;;;5010231;28;20064;-83
2023/03/22 09:59:57;;;;;;;10.50;2.80;;;10.80;99.90;;;;;;5027478;28;20044;-84
2023/03/22 10:03:00;;;;;;;5.75;1.77;;;10.80;99.90;;;;;;4990684;28;20343;-85
2023/03/22 10:05:33;;;;;;;3.72;1.60;;;10.80;99.90;;;;;;4992088;28;20037;-85
2023/03/22 10:08:23;;;;;;;6.43;2.67;;;10.70;99.90;;;;;;4986681;28;20057;-84
2023/03/22 10:10:51;;;;;;;6.30;2.10;;;10.70;99.90;;;;;;4987870;28;20041;-85
2023/03/22 10:13:59;;;;;;;7.65;2.65;;;10.70;99.90;;;;;;5004679;28;20125;-84
2023/03/22 10:16:42;;;;;;;3.80;1.50;;;10.70;99.90;;;;;;5023434;28;20342;-84
2023/03/22 10:19:24;;;;;;;7.50;1.75;;;10.60;99.90;;;;;;5009402;28;20111;-84
2023/03/22 10:21:54;;;;;;;5.03;1.65;;;10.50;99.90;;;;;;4989370;28;20042;-84
2023/03/22 10:24:38;;;;;;;5.07;1.70;;;10.60;99.90;;;;;;5007782;28;20353;-84
2023/03/22 10:27:14;;;;;;;3.45;1.27;;;10.60;99.90;;;;;;5003871;28;20037;-85
2023/03/22 10:29:52;;;;;;;4.53;1.33;;;10.50;99.90;;;;;;5026898;28;20128;-84
2023/03/22 10:32:46;;;;;;;5.00;1.20;;;10.50;99.90;;;;;;4995500;28;20068;-84
2023/03/22 10:35:18;;;;;;;3.13;1.55;;;10.50;99.90;;;;;;4991315;28;20034;-82
2023/03/22 10:37:51;;;;;;;6.43;2.10;;;10.50;99.90;;;;;;4992274;28;20033;-85
2023/03/22 10:44:59;;;;;;;;;;;;;;;;;;;;;
2023/03/22 10:49:01;;;;;;;;;;;;;;;;;;;;;
2023/03/22 10:51:29;;;;;;;5.10;1.42;;;10.50;99.90;;;;;;5027252;22;20422;-67
2023/03/22 10:53:57;;;;;;;7.10;2.03;;;10.40;99.90;;;;;;5001903;28;20040;-67
2023/03/22 10:56:23;;;;;;;7.43;2.08;;;10.50;99.90;;;;;;4999865;28;20045;-68
2023/03/22 10:58:50;;;;;;;5.72;1.80;;;10.50;99.90;;;;;;5017960;28;20391;-68
2023/03/22 11:01:31;;;;;;;4.95;2.03;;;10.50;99.90;;;;;;5005729;28;20044;-68
2023/03/22 11:04:09;;;;;;;5.78;2.05;;;10.50;99.90;;;;;;4997366;28;20112;-67
2023/03/22 11:06:39;;;;;;;4.10;1.70;;;10.50;99.90;;;;;;5017578;28;20112;-68
2023/03/22 11:09:15;;;;;;;8.50;2.03;;;10.50;99.90;;;;;;4981403;28;20084;-68
2023/03/22 11:11:57;;;;;;;5.85;2.08;;;10.50;99.90;;;;;;5003470;28;20038;-67
2023/03/22 11:14:41;;;;;;;3.83;1.80;;;10.60;99.90;;;;;;5002261;28;20503;-68
2023/03/22 11:17:12;;;;;;;6.78;2.20;;;10.60;99.90;;;;;;5000850;28;20037;-67
2023/03/22 11:19:50;;;;;;;7.88;1.83;;;10.60;99.90;;;;;;4987678;28;20034;-67
2023/03/22 11:22:32;;;;;;;4.50;2.38;;;10.60;99.90;;;;;;4988238;28;20042;-67
2023/03/22 11:24:59;;;;;;;7.63;2.03;;;10.70;99.90;;;;;;4997086;28;20042;-68
2023/03/22 11:27:31;;;;;;;4.40;1.95;;;10.70;99.90;;;;;;4969397;28;20062;-67
2023/03/22 11:30:20;;;;;;;7.13;1.95;;;10.60;99.90;;;;;;4974416;28;20041;-67
2023/03/22 11:32:46;;;;;;;4.07;1.80;;;10.60;99.90;;;;;;4984546;28;20084;-67
2023/03/22 11:35:20;;;;;;;6.88;2.00;;;10.70;99.90;;;;;;4986510;28;20056;-68
2023/03/22 11:37:51;;;;;;;5.93;1.90;;;10.70;99.90;;;;;;4980729;28;20499;-67
2023/03/22 11:40:17;;;;;;;4.30;1.90;;;10.70;99.90;;;;;;5000634;28;20034;-67
2023/03/22 11:42:45;;;;;;;4.45;2.00;;;10.70;99.90;;;;;;5002009;28;20053;-67
2023/03/22 11:45:28;;;;;;;4.53;2.40;;;10.70;99.90;;;;;;4998156;28;20030;-67
2023/03/22 11:48:00;;;;;;;5.22;1.67;;;10.70;99.90;;;;;;4981761;28;20097;-67
2023/03/22 11:50:31;;;;;;;7.03;2.15;;;10.80;99.90;;;;;;4983720;28;20038;-70
2023/03/22 11:53:00;;;;;;;8.95;2.30;;;10.80;99.90;;;;;;4974770;28;20038;-74
2023/03/22 11:55:30;;;;;;;6.10;2.00;;;10.90;99.90;;;;;;4985350;28;20061;-73
2023/03/22 11:57:56;;;;;;;3.85;1.92;;;10.90;99.90;;;;;;5013066;28;20042;-67
2023/03/22 12:00:28;;;;;;;4.57;1.95;;;10.90;99.90;;;;;;5012649;28;20611;-67
2023/03/22 12:02:56;;;;;;;5.20;1.88;;;10.90;99.90;;;;;;4985139;28;20400;-67
2023/03/22 12:05:27;;;;;;;6.28;2.60;;;10.90;99.90;;;;;;4985080;28;20127;-67
2023/03/22 12:08:08;;;;;;;5.07;2.50;;;10.90;99.90;;;;;;4999903;28;20034;-68
2023/03/22 12:10:42;;;;;;;6.32;2.13;;;10.90;99.90;;;;;;5000019;28;20163;-68
2023/03/22 12:13:42;;;;;;;5.72;1.75;;;10.90;99.90;;;;;;5002630;28;20034;-69
2023/03/22 12:16:11;;;;;;;8.88;2.75;;;10.90;99.90;;;;;;5002821;28;20381;-68
2023/03/22 12:19:01;;;;;;;6.80;1.80;;;10.90;99.90;;;;;;4988290;28;20065;-68
2023/03/22 12:21:28;;;;;;;8.20;2.08;;;10.90;99.90;;;;;;4989559;28;20117;-67
2023/03/22 12:23:59;;;;;;;7.35;1.83;;;10.90;99.90;;;;;;5000796;28;20078;-68
2023/03/22 12:26:28;;;;;;;7.82;1.95;;;10.90;99.90;;;;;;5016470;28;20499;-67
2023/03/22 12:29:20;;;;;;;5.18;1.80;;;10.90;99.90;;;;;;5017578;28;20137;-67
2023/03/22 12:32:02;;;;;;;3.83;1.77;;;10.90;99.90;;;;;;5003326;28;20470;-67
2023/03/22 12:34:47;;;;;;;7.60;2.03;;;10.90;99.90;;;;;;5004257;28;20044;-67
2023/03/22 12:37:25;;;;;;;7.20;2.13;;;10.90;99.90;;;;;;4990511;28;20038;-67
2023/03/22 12:39:52;;;;;;;;;;;10.90;99.90;;;;;;5004527;28;20046;-68
2023/03/22 12:42:33;;;;;;;3.50;1.75;;;10.90;99.90;;;;;;5005618;28;19917;-67
2023/03/22 12:45:05;;;;;;;5.07;1.80;;;10.80;99.90;;;;;;5004562;28;20050;-67
2023/03/22 12:47:40;;;;;;;4.68;1.85;;;10.70;99.90;;;;;;5005444;28;20650;-67
2023/03/22 12:50:17;;;;;;;7.70;2.50;;;10.70;99.90;;;;;;4988823;28;20415;-67
2023/03/22 12:52:53;;;;;;;3.85;1.83;;;10.60;99.90;;;;;;5004103;28;20046;-68
2023/03/22 12:55:35;;;;;;;7.20;1.95;;;10.60;99.90;;;;;;5006549;28;20460;-67
2023/03/22 12:58:03;;;;;;;9.15;2.05;;;10.50;99.90;;;;;;5017454;28;20099;-67
2023/03/22 13:00:46;;;;;;;9.30;2.63;;;10.50;99.90;;;;;;4998510;28;20104;-67
2023/03/22 13:03:16;;;;;;;6.35;2.65;;;10.50;99.90;;;;;;5006414;28;20153;-68
2023/03/22 13:05:44;;;;;;;7.88;3.00;;;10.50;99.90;;;;;;4995577;28;20069;-67
2023/03/22 13:08:10;;;;;;;5.60;1.88;;;10.50;99.90;;;;;;4981200;28;20049;-71
2023/03/22 13:10:37;;;;;;;4.82;2.40;;;10.50;99.90;;;;;;5003916;28;20053;-72
2023/03/22 13:13:15;;;;;;;3.85;1.92;;;10.50;99.90;;;;;;5022645;28;20062;-72
2023/03/22 13:15:59;;;;;;;4.07;2.53;;;10.50;99.90;;;;;;5006848;28;20045;-71
2023/03/22 13:18:34;;;;;;;3.83;2.10;;;10.50;99.90;;;;;;4972610;28;20038;-67
2023/03/22 13:21:18;;;;;;;6.90;2.13;;;10.50;99.90;;;;;;5002653;28;20040;-67
2023/03/22 13:24:08;;;;;;;5.35;2.03;;;10.50;99.90;;;;;;5002327;28;20088;-67
2023/03/22 13:26:47;;;;;;;6.97;2.25;;;10.50;99.90;;;;;;4998767;28;20435;-68
2023/03/22 13:29:20;;;;;;;5.18;2.70;;;10.50;99.90;;;;;;4986775;28;20127;-66